Latest Coastal Weather Observations for Portland Airport

IDV60701

Issued at 4:21 am EST Sunday 2 August 2015 (issued every 10 minutes, with the page automatically refreshed every 10 minutes)

About coastal observations | Map of coastal stations | Coastal observations for VIC | Marine services | Other Formats
Station Details ID: 090171 Name: CASHMORE AIRPORT Lat: -38.31 Lon: 141.47 Height: 80.9 m
Data from the previous 72 hours. | See also: Recent months at Portland Airport
Date/Time
EST
Temp

°C
Wind Pressure Rain
since 9am
mm
Weather Cloud Vis
km
Sea
Height
m
Swell
Dir
 
Speed
knots
Gust
knots
hPa Trend Height
m
Period
s
Dir
02/04:00am 6.4 NNW 9 15 1012.6 - 1.8 - Partly cloudy 10 - - - -
02/03:30am 6.3 NNW 10 14 1013.1 - 1.8 - Partly cloudy 10 - - - -
02/03:00am 6.5 NNW 8 13 1013.4 - 1.8 Recent precip. Cloudy 10 - - - -
02/02:30am 6.8 NW 8 12 1013.6 - 1.8 - Partly cloudy 10 - - - -
02/02:00am 6.9 NW 15 21 1013.9 - 1.2 - Partly cloudy 10 - - - -
02/01:30am 6.6 NW 9 12 1014.1 - 1.0 - Partly cloudy 10 - - - -
02/01:00am 7.0 NW 9 13 1014.5 - 0.8 - Partly cloudy 10 - - - -
02/12:30am 7.3 NW 9 12 1014.6 - 0.4 - Partly cloudy 10 - - - -
02/12:00am 7.1 NW 9 13 1014.9 - 0.4 - Cloudy 10 - - - -
 
Date/Time
EST
Temp

°C
Wind Pressure Rain
since 9am
mm
Weather Cloud Vis
km
Sea
Height
m
Swell
Dir
 
Speed
knots
Gust
knots
hPa Trend Height
m
Period
s
Dir
01/11:30pm 7.1 NW 8 11 1015.0 - 0.4 - Partly cloudy 10 - - - -
01/11:00pm 7.4 NW 10 15 1015.4 - 0.4 - Partly cloudy 8 - - - -
01/10:30pm 7.4 NW 9 11 1015.6 - 0.0 - Cloudy 10 - - - -
01/10:00pm 7.1 NW 9 11 1015.6 - 0.0 - Partly cloudy 10 - - - -
01/09:30pm 7.6 NW 9 14 1015.6 - 0.0 - Partly cloudy 10 - - - -
01/09:00pm 7.0 NNW 8 10 1015.6 - 0.0 - Cloudy 10 - - - -
01/08:30pm 6.4 NNW 7 9 1015.6 - 0.0 - Partly cloudy 10 - - - -
01/08:00pm 6.6 NNW 6 8 1015.5 - 0.0 - Partly cloudy 10 - - - -
01/07:30pm 7.4 NNW 8 11 1015.6 - 0.0 - Partly cloudy 10 - - - -
01/07:00pm 7.2 NNW 6 7 1015.5 - 0.0 - Partly cloudy 10 - - - -
01/06:30pm 7.9 NNW 5 7 1015.5 - 0.0 - Partly cloudy 10 - - - -
01/06:00pm 8.7 W 10 14 1015.4 - 0.0 - Mostly cloudy 10 - - - -
01/05:30pm 8.9 WNW 7 10 1015.2 - 0.0 - Partly cloudy 10 - - - -
01/05:00pm 9.2 W 10 14 1015.1 - 0.0 - Partly cloudy 10 - - - -
01/04:30pm 9.4 W 12 16 1015.0 - 0.0 - Partly cloudy 10 - - - -
01/04:00pm 9.8 WNW 12 16 1015.0 - 0.0 - Partly cloudy 10 - - - -
01/03:30pm 10.1 W 12 16 1014.7 - 0.0 - Partly cloudy 10 - - - -
01/03:00pm 9.9 W 13 18 1014.2 - 0.0 - Partly cloudy 10 - - - -
01/02:30pm 10.5 W 12 15 1014.5 - 0.0 - Partly cloudy 10 - - - -
01/02:00pm 10.3 W 12 19 1014.8 - 0.0 - Partly cloudy 10 - - - -
01/01:30pm 11.6 W 12 16 1014.5 - 0.0 - - 10 - - - -
01/01:00pm 10.2 W 13 18 1015.0 - 0.0 - Partly cloudy 10 - - - -
01/12:30pm 10.8 WSW 12 17 1015.2 - 0.0 - - 10 - - - -
01/12:00pm 10.8 W 15 20 1015.0 - 0.0 - Cloudy 10 - - - -
01/11:30am 10.2 WSW 11 15 1015.1 - 0.0 - Partly cloudy 10 - - - -
01/11:00am 10.2 WSW 11 15 1014.9 - 0.0 - - 10 - - - -
01/10:30am 9.6 SW 10 15 1015.0 - 0.0 - - 10 - - - -
01/10:00am 9.3 SW 10 13 1014.9 - 0.0 - Partly cloudy 10 - - - -
01/09:30am 9.1 SW 9 12 1014.7 - 0.0 - - 10 - - - -
01/09:00am 8.4 SW 10 16 1014.4 - 5.4 - Cloudy 10 - - - -
01/08:30am 8.4 WSW 10 14 1013.6 - 5.4 - Partly cloudy 10 - - - -
01/08:00am 7.6 WSW 10 13 1012.9 - 5.4 - Partly cloudy 10 - - - -
01/07:30am 7.5 SW 12 15 1012.4 - 5.4 - Partly cloudy 10 - - - -
01/07:00am 8.0 SW 12 15 1011.7 - 5.4 - Partly cloudy 10 - - - -
01/06:30am 8.1 SW 14 21 1011.0 - 5.4 - Partly cloudy 10 - - - -
01/06:00am 7.9 SW 13 17 1010.4 - 5.4 Recent precip. Partly cloudy 10 - - - -
01/05:50am 7.8 SW 10 15 1010.3 - 5.4 - Partly cloudy 10 - - - -
01/05:36am 8.1 WSW 11 16 1010.2 - 5.4 - Partly cloudy 6 - - - -
01/05:30am 7.9 WSW 10 13 1010.1 - 5.0 - Partly cloudy 9 - - - -
01/05:00am 7.8 WSW 13 18 1009.8 - 4.6 - Partly cloudy 10 - - - -
01/04:58am 7.8 WSW 13 17 1009.8 - 4.6 - Partly cloudy 10 - - - -
01/04:37am 8.0 SW 14 22 1009.3 - 4.2 - Partly cloudy 6 - - - -
01/04:35am 8.0 SW 14 22 1009.3 - 4.2 - Partly cloudy 7 - - - -
01/04:30am 8.0 SW 15 23 1009.2 - 4.0 - Partly cloudy 7 - - - -
01/04:28am 8.0 SW 15 23 1009.3 - 3.6 - Partly cloudy 8 - - - -
01/04:26am 8.0 SW 15 23 1009.2 - 3.6 - Partly cloudy 9 - - - -
01/04:00am 8.7 SW 16 27 1008.5 - 3.4 - Partly cloudy 5 - - - -
01/03:54am 8.8 SW 16 27 1008.4 - 3.4 - Partly cloudy 5 - - - -
01/03:30am 10.5 W 18 27 1007.7 - 2.4 - Partly cloudy 4 - - - -
01/03:15am 10.8 WNW 21 31 1007.6 - 1.8 - Partly cloudy 4 - - - -
01/03:14am 10.8 WNW 22 31 1007.5 - 1.6 - Partly cloudy 5 - - - -
01/03:06am 11.0 WNW 24 39 1007.2 - 1.4 - Partly cloudy 6 - - - -
01/03:00am 11.3 NW 19 35 1006.9 - 1.4 Rain Mostly cloudy 10 - - - -
01/02:56am 11.3 NW 17 27 1006.6 - 1.2 - Partly cloudy 10 - - - -
01/02:30am 11.1 NNW 15 22 1006.4 - 0.8 - Partly cloudy 10 - - - -
01/02:00am 10.5 NNW 14 21 1006.5 - 0.6 - Partly cloudy 10 - - - -
01/01:56am 10.4 NNW 14 19 1006.6 - 0.6 - Partly cloudy 10 - - - -
01/01:38am 9.9 NNW 13 20 1006.7 - 0.6 - Partly cloudy 6 - - - -
01/01:30am 9.8 NNW 13 19 1006.8 - 0.2 - Partly cloudy 10 - - - -
01/01:27am 9.8 NNW 13 21 1006.8 - 0.2 - Partly cloudy 10 - - - -
01/01:00am 10.3 NNW 17 24 1007.1 - 0.0 - Partly cloudy 6 - - - -
01/12:30am 10.8 NNW 16 23 1007.4 - 0.0 - Cloudy 10 - - - -
01/12:00am 10.6 NNW 15 21 1008.0 - 0.0 - Cloudy 10 - - - -
 
Date/Time
EST
Temp

°C
Wind Pressure Rain
since 9am
mm
Weather Cloud Vis
km
Sea
Height
m
Swell
Dir
 
Speed
knots
Gust
knots
hPa Trend Height
m
Period
s
Dir
31/11:30pm 10.3 NNW 16 25 1008.5 - 0.0 - Partly cloudy 10 - - - -
31/11:05pm 10.0 NNW 15 26 1009.1 - 0.0 - Partly cloudy 10 - - - -
31/11:00pm 9.9 NNW 15 23 1009.0 - 0.0 - Partly cloudy 10 - - - -
31/10:30pm 9.8 NNW 15 25 1009.3 - 0.0 - Cloudy 10 - - - -
31/10:00pm 9.5 NNW 14 22 1010.1 - 0.0 - - 10 - - - -
31/09:30pm 9.2 NNW 13 19 1010.7 - 0.0 - Partly cloudy 10 - - - -
31/09:00pm 9.0 NNW 11 16 1011.3 - 0.0 - Cloudy 10 - - - -
31/08:30pm 9.0 NNW 11 15 1011.7 - 0.0 - Cloudy 10 - - - -
31/08:00pm 8.9 N 11 15 1011.7 - 0.0 - Cloudy 10 - - - -
31/07:30pm 8.8 N 9 13 1012.8 - 0.0 - Cloudy 10 - - - -
31/07:00pm 8.8 NNW 9 14 1013.4 - 0.0 - Cloudy 10 - - - -
31/06:30pm 8.9 NNW 9 14 1013.6 - 0.0 - Cloudy 10 - - - -
31/06:00pm 8.9 NW 9 15 1013.8 - 0.0 - Cloudy 10 - - - -
31/05:30pm 9.1 NW 11 17 1014.2 - 0.0 - Cloudy 10 - - - -
31/05:00pm 9.3 NNW 11 15 1014.4 - 0.0 - Cloudy 10 - - - -
31/04:30pm 9.5 NW 13 18 1014.6 - 0.0 - Cloudy 10 - - - -
31/04:00pm 10.0 NW 12 20 1014.5 - 0.0 - Cloudy 10 - - - -
31/03:30pm 10.3 NW 13 20 1014.8 - 0.0 - Cloudy 10 - - - -
31/03:00pm 10.5 NNW 13 19 1014.8 - 0.0 - Mostly cloudy 10 - - - -
31/02:30pm 10.2 NW 10 15 1015.3 - 0.0 - Cloudy 10 - - - -
31/02:00pm 10.0 NNW 13 19 1016.1 - 0.0 - Cloudy 10 - - - -
31/01:30pm 10.0 NW 15 19 1016.5 - 0.0 - Cloudy 10 - - - -
31/01:00pm 9.9 NW 14 18 1017.2 - 0.0 - Cloudy 10 - - - -
31/12:30pm 10.0 NW 13 19 1018.0 - 0.0 - Cloudy 10 - - - -
31/12:00pm 10.4 NW 13 18 1018.7 - 0.0 - Cloudy 10 - - - -
31/11:30am 10.4 NNW 13 19 1019.1 - 0.0 - Cloudy 10 - - - -
31/11:00am 9.9 NNW 11 16 1019.4 - 0.0 - Cloudy 10 - - - -
31/10:30am 9.6 NNW 10 15 1019.6 - 0.0 - Cloudy 10 - - - -
31/10:00am 8.7 NNW 10 14 1019.8 - 0.0 - Cloudy 10 - - - -
31/09:30am 7.8 NNW 9 13 1019.8 - 0.0 - Cloudy 10 - - - -
31/09:00am 7.1 NNW 9 11 1019.9 - 5.4 - Cloudy 10 - - - -
31/08:30am 6.7 NNW 7 10 1019.9 - 5.4 - Cloudy 10 - - - -
31/08:00am 6.5 NNW 8 10 1019.8 - 5.4 - Cloudy 10 - - - -
31/07:30am 6.5 NNW 7 8 1019.7 - 5.4 - Cloudy 10 - - - -
31/07:00am 6.3 NNW 7 9 1019.4 - 5.4 - Cloudy 10 - - - -
31/06:30am 6.9 NW 6 10 1019.5 - 5.4 - Partly cloudy 10 - - - -
31/06:00am 8.3 W 9 14 1019.2 - 5.4 - Cloudy 10 - - - -
31/05:30am 8.2 W 8 12 1019.3 - 5.4 - Partly cloudy 10 - - - -
31/05:00am 7.9 W 8 10 1019.6 - 5.4 - Cloudy 10 - - - -
31/04:30am 7.8 SW 8 10 1019.5 - 5.4 - Partly cloudy 10 - - - -
31/04:00am 8.5 W 11 15 1019.6 - 5.4 - Partly cloudy 10 - - - -
31/03:30am 8.0 W 7 9 1019.6 - 5.4 - Cloudy 10 - - - -
31/03:00am 7.5 WSW 6 7 1019.7 - 5.4 - Cloudy 10 - - - -
31/02:30am 7.7 W 6 9 1019.8 - 5.4 - Partly cloudy 10 - - - -
31/02:00am 5.1 WSW 5 7 1019.7 - 5.4 - Partly cloudy 10 - - - -
31/01:30am 5.8 WSW 6 7 1019.7 - 5.4 - Partly cloudy 10 - - - -
31/01:00am 7.1 WSW 7 9 1019.8 - 5.4 - Partly cloudy 10 - - - -
31/12:30am 7.4 WSW 6 7 1019.8 - 5.4 - Partly cloudy 10 - - - -
31/12:00am 7.4 WSW 6 8 1019.6 - 5.4 Recent precip. - 10 - - - -
 
Date/Time
EST
Temp

°C
Wind Pressure Rain
since 9am
mm
Weather Cloud Vis
km
Sea
Height
m
Swell
Dir
 
Speed
knots
Gust
knots
hPa Trend Height
m
Period
s
Dir
30/11:30pm 7.8 WSW 8 13 1019.7 - 5.4 - Partly cloudy 10 - - - -
30/11:00pm 8.1 SW 5 9 1019.3 - 5.2 - Partly cloudy 10 - - - -
30/10:30pm 7.6 WSW 7 10 1019.0 - 5.2 - Partly cloudy 10 - - - -
30/10:00pm 7.8 SW 9 13 1018.8 - 5.2 - Partly cloudy 10 - - - -
30/09:30pm 8.1 SW 9 14 1018.4 - 5.2 - Partly cloudy 10 - - - -
30/09:00pm 8.0 SW 11 16 1017.9 - 5.2 Recent precip. Partly cloudy 10 - - - -
30/08:30pm 8.5 SW 13 21 1017.9 - 5.2 - Partly cloudy 10 - - - -
30/08:00pm 8.9 SW 12 19 1017.1 - 5.0 - Partly cloudy 10 - - - -
30/07:30pm 9.0 SW 15 21 1016.3 - 5.0 - Partly cloudy 10 - - - -
30/07:00pm 9.3 SW 14 23 1015.7 - 5.0 - Partly cloudy 10 - - - -
30/06:30pm 9.1 WSW 15 22 1014.9 - 5.0 - Partly cloudy 10 - - - -
30/06:00pm 8.9 WSW 14 20 1014.2 - 5.0 Recent precip. Cloudy 10 - - - -
30/05:30pm 8.6 WSW 17 25 1013.5 - 5.0 - Partly cloudy 10 - - - -
30/05:29pm 8.6 WSW 17 25 1013.5 - 5.0 - Partly cloudy 10 - - - -
30/05:00pm 9.0 SW 22 32 1012.7 - 4.0 - Partly cloudy 9 - - - -
30/04:58pm 9.0 WSW 21 32 1012.7 - 4.0 - Partly cloudy 9 - - - -
30/04:45pm 9.7 WSW 21 33 1012.1 - 3.6 - Partly cloudy 4 - - - -
30/04:39pm 10.1 W 24 39 1011.8 - 3.6 - Partly cloudy 2 - - - -
30/04:30pm 10.5 WNW 24 40 1011.0 - 2.0 - Partly cloudy 3 - - - -
30/04:28pm 10.6 WNW 22 40 1010.8 - 1.8 - Partly cloudy 4 - - - -
30/04:26pm 11.0 NW 19 37 1010.7 - 1.6 - Partly cloudy 6 - - - -
30/04:00pm 10.8 NW 17 27 1009.8 - 0.2 - Partly cloudy 10 - - - -
30/03:53pm 10.7 NW 17 27 1009.9 - 0.2 - Cloudy 10 - - - -
30/03:50pm 10.6 NW 16 22 1010.0 - 0.2 - Partly cloudy 10 - - - -
30/03:30pm 10.5 NW 18 31 1010.3 - 0.2 - Partly cloudy 6 - - - -
30/03:29pm 10.5 NW 18 31 1010.3 - 0.2 - Partly cloudy 6 - - - -
30/03:21pm 11.1 NW 18 31 1010.0 - 0.2 - Cloudy 10 - - - -
30/03:00pm 11.6 NW 18 25 1009.8 - 0.2 - Cloudy 10 - - - -
30/02:30pm 11.0 NNW 19 30 1010.1 - 0.2 - Partly cloudy 10 - - - -
30/02:02pm 10.5 NNW 19 30 1010.3 - 0.2 - Partly cloudy 10 - - - -
30/02:00pm 10.4 NNW 19 28 1010.4 - 0.2 - Partly cloudy 10 - - - -
30/01:46pm 10.0 NNW 18 28 1010.1 - 0.2 - Partly cloudy 10 - - - -
30/01:30pm 9.7 NNW 18 27 1010.7 - 0.2 - Partly cloudy 10 - - - -
30/01:05pm 9.8 NNW 18 28 1011.3 - 0.2 - Cloudy 10 - - - -
30/01:00pm 9.6 NNW 19 27 1011.3 - 0.2 - Cloudy 10 - - - -
30/12:30pm 10.6 NNW 20 31 1012.1 - 0.0 - Partly cloudy 10 - - - -
30/12:03pm 11.3 NNW 21 31 1012.3 - 0.0 - Cloudy 10 - - - -
30/12:00pm 11.2 NNW 21 30 1012.5 - 0.0 - Cloudy 10 - - - -
30/11:30am 11.1 NNW 17 29 1012.8 - 0.0 - Partly cloudy 10 - - - -
30/11:00am 10.8 NNW 17 29 1012.9 - 0.0 - Partly cloudy 10 - - - -
30/10:55am 10.5 NNW 15 25 1013.2 - 0.0 - Partly cloudy 10 - - - -
30/10:30am 9.9 N 16 25 1013.5 - 0.0 - Partly cloudy 10 - - - -
30/10:00am 9.3 N 17 26 1013.8 - 0.0 - Partly cloudy 10 - - - -
30/09:30am 8.7 N 17 26 1014.4 - 0.0 - Partly cloudy 10 - - - -
30/09:11am 8.9 NNW 17 29 1015.1 - 0.0 - Cloudy 10 - - - -
30/09:00am 8.7 NNW 15 23 1015.2 - 0.2 Recent precip. Cloudy 10 - - - -
30/08:30am 8.1 NNW 13 17 1015.6 - 0.2 - Partly cloudy 10 - - - -
30/08:00am 8.5 NNW 15 21 1015.9 - 0.0 - Partly cloudy 10 - - - -
30/07:30am 8.1 NNW 15 22 1015.9 - 0.0 - Partly cloudy 10 - - - -
30/07:00am 8.7 NNW 15 22 1015.7 - 0.0 - Partly cloudy 10 - - - -
30/06:47am 8.7 NNW 15 25 1015.8 - 0.0 - Partly cloudy 10 - - - -
30/06:30am 8.7 NNW 15 24 1015.9 - 0.0 - Cloudy 10 - - - -
30/06:00am 8.7 NNW 15 24 1016.2 - 0.0 - Mostly cloudy 10 - - - -
30/05:30am 8.5 NNW 16 24 1016.8 - 0.0 - Cloudy 10 - - - -
30/05:09am 8.6 N 17 27 1016.9 - 0.0 - Cloudy 10 - - - -
30/05:00am 8.4 NNW 17 26 1017.3 - 0.0 - Cloudy 10 - - - -
30/04:30am 8.4 NNW 16 23 1017.7 - 0.0 - Cloudy 10 - - - -

Other Formats:

Comma delimited format used in spreadsheet applications
http://www.bom.gov.au/fwo/IDV60701/IDV60701.94828.axf

JavaScript Object Notation format (JSON) in row-major order
http://www.bom.gov.au/fwo/IDV60701/IDV60701.94828.json